sensor_id;sensor_type;location;lat;lon;timestamp;P1;durP1;ratioP1;P2;durP2;ratioP2
20150;SDS011;10236;49.638;6.830;2022-08-30T00:01:25;4.80;;;2.23;;
20150;SDS011;10236;49.638;6.830;2022-08-30T00:03:52;6.83;;;2.03;;
20150;SDS011;10236;49.638;6.830;2022-08-30T00:06:19;4.87;;;2.50;;
20150;SDS011;10236;49.638;6.830;2022-08-30T00:08:45;5.27;;;2.40;;
20150;SDS011;10236;49.638;6.830;2022-08-30T00:11:16;3.37;;;2.03;;
20150;SDS011;10236;49.638;6.830;2022-08-30T00:13:42;4.53;;;2.30;;
20150;SDS011;10236;49.638;6.830;2022-08-30T00:16:09;4.40;;;2.27;;
20150;SDS011;10236;49.638;6.830;2022-08-30T00:18:36;7.03;;;2.17;;
20150;SDS011;10236;49.638;6.830;2022-08-30T00:21:03;7.53;;;2.57;;
20150;SDS011;10236;49.638;6.830;2022-08-30T00:23:29;5.80;;;2.37;;
20150;SDS011;10236;49.638;6.830;2022-08-30T00:25:55;4.07;;;2.33;;
20150;SDS011;10236;49.638;6.830;2022-08-30T00:28:21;5.87;;;2.73;;
20150;SDS011;10236;49.638;6.830;2022-08-30T00:30:46;3.97;;;1.97;;
20150;SDS011;10236;49.638;6.830;2022-08-30T00:33:13;8.07;;;3.03;;
20150;SDS011;10236;49.638;6.830;2022-08-30T00:35:39;4.53;;;1.87;;
20150;SDS011;10236;49.638;6.830;2022-08-30T00:38:06;6.07;;;2.00;;
20150;SDS011;10236;49.638;6.830;2022-08-30T00:40:32;5.57;;;2.50;;
20150;SDS011;10236;49.638;6.830;2022-08-30T00:42:59;4.50;;;2.50;;
20150;SDS011;10236;49.638;6.830;2022-08-30T00:45:27;4.13;;;2.13;;
20150;SDS011;10236;49.638;6.830;2022-08-30T00:47:53;5.00;;;2.07;;
20150;SDS011;10236;49.638;6.830;2022-08-30T00:50:21;5.17;;;2.43;;
20150;SDS011;10236;49.638;6.830;2022-08-30T00:52:48;4.37;;;1.80;;
20150;SDS011;10236;49.638;6.830;2022-08-30T00:55:16;3.97;;;2.20;;
20150;SDS011;10236;49.638;6.830;2022-08-30T00:57:43;6.50;;;2.30;;
20150;SDS011;10236;49.638;6.830;2022-08-30T01:00:10;6.30;;;2.30;;
20150;SDS011;10236;49.638;6.830;2022-08-30T01:02:36;3.83;;;2.13;;
20150;SDS011;10236;49.638;6.830;2022-08-30T01:05:03;4.17;;;2.30;;
20150;SDS011;10236;49.638;6.830;2022-08-30T01:07:38;5.73;;;2.43;;
20150;SDS011;10236;49.638;6.830;2022-08-30T01:10:05;3.90;;;2.23;;
20150;SDS011;10236;49.638;6.830;2022-08-30T01:12:33;3.90;;;2.30;;
20150;SDS011;10236;49.638;6.830;2022-08-30T01:14:59;4.37;;;1.97;;
20150;SDS011;10236;49.638;6.830;2022-08-30T01:17:26;4.10;;;2.07;;
20150;SDS011;10236;49.638;6.830;2022-08-30T01:19:53;5.87;;;2.17;;
20150;SDS011;10236;49.638;6.830;2022-08-30T01:24:46;6.43;;;2.23;;
20150;SDS011;10236;49.638;6.830;2022-08-30T01:27:14;3.47;;;1.80;;
20150;SDS011;10236;49.638;6.830;2022-08-30T01:29:40;4.63;;;2.30;;
20150;SDS011;10236;49.638;6.830;2022-08-30T01:32:14;4.17;;;2.20;;
20150;SDS011;10236;49.638;6.830;2022-08-30T01:34:42;4.10;;;2.27;;
20150;SDS011;10236;49.638;6.830;2022-08-30T01:37:08;3.40;;;2.00;;
20150;SDS011;10236;49.638;6.830;2022-08-30T01:39:34;5.43;;;2.27;;
20150;SDS011;10236;49.638;6.830;2022-08-30T01:42:00;5.23;;;2.40;;
20150;SDS011;10236;49.638;6.830;2022-08-30T01:44:26;4.97;;;2.17;;
20150;SDS011;10236;49.638;6.830;2022-08-30T01:46:52;4.07;;;2.20;;
20150;SDS011;10236;49.638;6.830;2022-08-30T01:49:19;4.53;;;2.43;;
20150;SDS011;10236;49.638;6.830;2022-08-30T01:51:45;4.00;;;2.57;;
20150;SDS011;10236;49.638;6.830;2022-08-30T01:54:11;4.47;;;2.67;;
20150;SDS011;10236;49.638;6.830;2022-08-30T01:56:37;5.33;;;2.60;;
20150;SDS011;10236;49.638;6.830;2022-08-30T01:59:03;4.70;;;1.70;;
20150;SDS011;10236;49.638;6.830;2022-08-30T02:01:30;5.97;;;2.30;;
20150;SDS011;10236;49.638;6.830;2022-08-30T02:03:57;4.47;;;1.97;;
20150;SDS011;10236;49.638;6.830;2022-08-30T02:06:23;6.60;;;2.07;;
20150;SDS011;10236;49.638;6.830;2022-08-30T02:08:50;4.67;;;1.97;;
20150;SDS011;10236;49.638;6.830;2022-08-30T02:11:16;4.10;;;2.03;;
20150;SDS011;10236;49.638;6.830;2022-08-30T02:13:43;7.40;;;2.30;;
20150;SDS011;10236;49.638;6.830;2022-08-30T02:16:11;7.00;;;2.30;;
20150;SDS011;10236;49.638;6.830;2022-08-30T02:18:37;3.60;;;2.03;;
20150;SDS011;10236;49.638;6.830;2022-08-30T02:21:04;3.00;;;2.13;;
20150;SDS011;10236;49.638;6.830;2022-08-30T02:23:31;5.80;;;2.37;;
20150;SDS011;10236;49.638;6.830;2022-08-30T02:25:57;6.77;;;1.90;;
20150;SDS011;10236;49.638;6.830;2022-08-30T02:28:23;3.93;;;2.03;;
20150;SDS011;10236;49.638;6.830;2022-08-30T02:30:49;4.40;;;2.77;;
20150;SDS011;10236;49.638;6.830;2022-08-30T02:33:16;4.87;;;2.10;;
20150;SDS011;10236;49.638;6.830;2022-08-30T02:35:42;4.43;;;2.10;;
20150;SDS011;10236;49.638;6.830;2022-08-30T02:38:08;7.00;;;2.23;;
20150;SDS011;10236;49.638;6.830;2022-08-30T02:40:34;3.57;;;2.07;;
20150;SDS011;10236;49.638;6.830;2022-08-30T02:43:00;9.93;;;2.50;;
20150;SDS011;10236;49.638;6.830;2022-08-30T02:45:26;2.87;;;1.90;;
20150;SDS011;10236;49.638;6.830;2022-08-30T02:47:52;4.77;;;1.87;;
20150;SDS011;10236;49.638;6.830;2022-08-30T02:50:20;3.57;;;2.17;;
20150;SDS011;10236;49.638;6.830;2022-08-30T02:52:46;3.07;;;1.90;;
20150;SDS011;10236;49.638;6.830;2022-08-30T02:55:12;4.13;;;2.30;;
20150;SDS011;10236;49.638;6.830;2022-08-30T02:57:38;4.57;;;2.53;;
20150;SDS011;10236;49.638;6.830;2022-08-30T03:00:07;6.47;;;2.40;;
20150;SDS011;10236;49.638;6.830;2022-08-30T03:02:34;4.80;;;2.10;;
20150;SDS011;10236;49.638;6.830;2022-08-30T03:05:00;3.83;;;2.00;;
20150;SDS011;10236;49.638;6.830;2022-08-30T03:07:26;3.13;;;2.00;;
20150;SDS011;10236;49.638;6.830;2022-08-30T03:09:52;3.23;;;2.07;;
20150;SDS011;10236;49.638;6.830;2022-08-30T03:12:18;3.03;;;1.93;;
20150;SDS011;10236;49.638;6.830;2022-08-30T03:14:44;4.67;;;2.20;;
20150;SDS011;10236;49.638;6.830;2022-08-30T03:17:10;4.63;;;2.23;;
20150;SDS011;10236;49.638;6.830;2022-08-30T03:48:31;6.73;;;2.10;;
20150;SDS011;10236;49.638;6.830;2022-08-30T03:50:57;5.73;;;2.17;;
20150;SDS011;10236;49.638;6.830;2022-08-30T03:53:23;6.73;;;2.47;;
20150;SDS011;10236;49.638;6.830;2022-08-30T03:55:49;5.80;;;2.20;;
20150;SDS011;10236;49.638;6.830;2022-08-30T03:58:15;3.37;;;1.90;;
20150;SDS011;10236;49.638;6.830;2022-08-30T04:00:41;5.07;;;2.13;;
20150;SDS011;10236;49.638;6.830;2022-08-30T04:03:07;5.40;;;2.60;;
20150;SDS011;10236;49.638;6.830;2022-08-30T04:05:33;4.47;;;2.00;;
20150;SDS011;10236;49.638;6.830;2022-08-30T04:08:02;6.57;;;2.57;;
20150;SDS011;10236;49.638;6.830;2022-08-30T04:10:28;4.07;;;2.17;;
20150;SDS011;10236;49.638;6.830;2022-08-30T04:12:54;4.93;;;2.50;;
20150;SDS011;10236;49.638;6.830;2022-08-30T04:15:20;4.23;;;1.90;;
20150;SDS011;10236;49.638;6.830;2022-08-30T04:17:47;6.17;;;2.23;;
20150;SDS011;10236;49.638;6.830;2022-08-30T04:20:13;6.37;;;2.40;;
20150;SDS011;10236;49.638;6.830;2022-08-30T04:22:39;3.97;;;1.80;;
20150;SDS011;10236;49.638;6.830;2022-08-30T04:25:06;4.47;;;2.80;;
20150;SDS011;10236;49.638;6.830;2022-08-30T04:27:32;6.30;;;2.47;;
20150;SDS011;10236;49.638;6.830;2022-08-30T04:29:58;7.83;;;2.20;;
20150;SDS011;10236;49.638;6.830;2022-08-30T04:32:25;5.30;;;2.40;;
20150;SDS011;10236;49.638;6.830;2022-08-30T04:34:57;6.03;;;2.50;;
20150;SDS011;10236;49.638;6.830;2022-08-30T04:37:23;3.63;;;2.10;;
20150;SDS011;10236;49.638;6.830;2022-08-30T04:39:50;3.87;;;2.20;;
20150;SDS011;10236;49.638;6.830;2022-08-30T04:42:15;3.93;;;2.10;;
20150;SDS011;10236;49.638;6.830;2022-08-30T04:44:42;6.27;;;2.20;;
20150;SDS011;10236;49.638;6.830;2022-08-30T04:47:08;5.17;;;2.30;;
20150;SDS011;10236;49.638;6.830;2022-08-30T04:49:34;4.83;;;2.20;;
20150;SDS011;10236;49.638;6.830;2022-08-30T04:52:00;3.87;;;1.80;;
20150;SDS011;10236;49.638;6.830;2022-08-30T04:54:26;4.87;;;2.00;;
20150;SDS011;10236;49.638;6.830;2022-08-30T04:56:52;5.80;;;2.30;;
20150;SDS011;10236;49.638;6.830;2022-08-30T04:59:18;7.70;;;2.20;;
20150;SDS011;10236;49.638;6.830;2022-08-30T05:01:46;4.13;;;2.27;;
20150;SDS011;10236;49.638;6.830;2022-08-30T05:04:13;4.43;;;2.17;;
20150;SDS011;10236;49.638;6.830;2022-08-30T05:06:39;5.23;;;2.43;;
20150;SDS011;10236;49.638;6.830;2022-08-30T05:09:04;5.53;;;2.07;;
20150;SDS011;10236;49.638;6.830;2022-08-30T05:11:31;6.00;;;2.83;;
20150;SDS011;10236;49.638;6.830;2022-08-30T05:13:57;5.70;;;2.50;;
20150;SDS011;10236;49.638;6.830;2022-08-30T05:16:23;7.73;;;2.60;;
20150;SDS011;10236;49.638;6.830;2022-08-30T05:18:50;3.43;;;2.10;;
20150;SDS011;10236;49.638;6.830;2022-08-30T05:21:17;4.73;;;2.43;;
20150;SDS011;10236;49.638;6.830;2022-08-30T05:23:43;4.43;;;2.20;;
20150;SDS011;10236;49.638;6.830;2022-08-30T05:26:14;4.37;;;2.17;;
20150;SDS011;10236;49.638;6.830;2022-08-30T05:28:41;4.67;;;2.40;;
20150;SDS011;10236;49.638;6.830;2022-08-30T05:31:11;6.47;;;2.33;;
20150;SDS011;10236;49.638;6.830;2022-08-30T05:33:38;5.67;;;2.23;;
20150;SDS011;10236;49.638;6.830;2022-08-30T05:36:07;3.30;;;2.17;;
20150;SDS011;10236;49.638;6.830;2022-08-30T05:38:33;3.87;;;2.50;;
20150;SDS011;10236;49.638;6.830;2022-08-30T05:41:00;4.17;;;2.37;;
20150;SDS011;10236;49.638;6.830;2022-08-30T05:43:26;7.87;;;2.40;;
20150;SDS011;10236;49.638;6.830;2022-08-30T05:46:02;7.13;;;2.20;;
20150;SDS011;10236;49.638;6.830;2022-08-30T05:48:29;4.67;;;2.23;;
20150;SDS011;10236;49.638;6.830;2022-08-30T05:51:06;5.17;;;2.30;;
20150;SDS011;10236;49.638;6.830;2022-08-30T05:53:32;5.50;;;2.53;;
20150;SDS011;10236;49.638;6.830;2022-08-30T05:55:59;4.27;;;2.27;;
20150;SDS011;10236;49.638;6.830;2022-08-30T05:58:25;5.13;;;2.30;;
20150;SDS011;10236;49.638;6.830;2022-08-30T06:00:51;4.57;;;2.13;;
20150;SDS011;10236;49.638;6.830;2022-08-30T06:03:17;4.07;;;2.47;;
20150;SDS011;10236;49.638;6.830;2022-08-30T06:05:43;5.00;;;2.10;;
20150;SDS011;10236;49.638;6.830;2022-08-30T06:08:09;4.90;;;2.37;;
20150;SDS011;10236;49.638;6.830;2022-08-30T06:10:35;7.00;;;2.33;;
20150;SDS011;10236;49.638;6.830;2022-08-30T06:13:01;8.13;;;2.53;;
20150;SDS011;10236;49.638;6.830;2022-08-30T06:15:27;5.23;;;2.43;;
20150;SDS011;10236;49.638;6.830;2022-08-30T06:17:53;6.33;;;2.37;;
20150;SDS011;10236;49.638;6.830;2022-08-30T06:20:20;4.57;;;2.40;;
20150;SDS011;10236;49.638;6.830;2022-08-30T06:22:46;8.20;;;2.67;;
20150;SDS011;10236;49.638;6.830;2022-08-30T06:25:12;4.40;;;1.97;;
20150;SDS011;10236;49.638;6.830;2022-08-30T06:27:40;7.33;;;2.20;;
20150;SDS011;10236;49.638;6.830;2022-08-30T06:30:06;6.33;;;2.50;;
20150;SDS011;10236;49.638;6.830;2022-08-30T06:32:35;9.60;;;2.90;;
20150;SDS011;10236;49.638;6.830;2022-08-30T06:35:02;6.87;;;2.17;;
20150;SDS011;10236;49.638;6.830;2022-08-30T06:37:29;4.83;;;2.40;;
20150;SDS011;10236;49.638;6.830;2022-08-30T06:39:57;5.53;;;2.10;;
20150;SDS011;10236;49.638;6.830;2022-08-30T06:42:23;5.87;;;2.07;;
20150;SDS011;10236;49.638;6.830;2022-08-30T06:44:55;4.10;;;1.87;;
20150;SDS011;10236;49.638;6.830;2022-08-30T06:47:21;5.82;;;2.00;;
20150;SDS011;10236;49.638;6.830;2022-08-30T06:49:47;7.68;;;2.03;;
20150;SDS011;10236;49.638;6.830;2022-08-30T06:52:13;8.13;;;2.50;;
20150;SDS011;10236;49.638;6.830;2022-08-30T06:54:39;6.38;;;2.63;;
20150;SDS011;10236;49.638;6.830;2022-08-30T06:57:05;4.55;;;2.20;;
20150;SDS011;10236;49.638;6.830;2022-08-30T06:59:31;7.45;;;2.50;;
20150;SDS011;10236;49.638;6.830;2022-08-30T07:01:57;5.72;;;2.45;;
20150;SDS011;10236;49.638;6.830;2022-08-30T07:04:23;7.45;;;2.70;;
20150;SDS011;10236;49.638;6.830;2022-08-30T07:06:49;8.55;;;2.80;;
20150;SDS011;10236;49.638;6.830;2022-08-30T07:09:15;4.13;;;2.40;;
20150;SDS011;10236;49.638;6.830;2022-08-30T07:11:42;6.15;;;2.40;;
20150;SDS011;10236;49.638;6.830;2022-08-30T07:14:09;8.18;;;2.60;;
20150;SDS011;10236;49.638;6.830;2022-08-30T07:16:35;4.03;;;2.17;;
20150;SDS011;10236;49.638;6.830;2022-08-30T07:19:01;5.80;;;2.10;;
20150;SDS011;10236;49.638;6.830;2022-08-30T07:21:30;4.20;;;2.50;;
20150;SDS011;10236;49.638;6.830;2022-08-30T07:23:57;5.47;;;2.40;;
20150;SDS011;10236;49.638;6.830;2022-08-30T07:26:34;4.22;;;2.13;;
20150;SDS011;10236;49.638;6.830;2022-08-30T07:29:01;5.72;;;2.35;;
20150;SDS011;10236;49.638;6.830;2022-08-30T07:31:27;5.63;;;2.42;;
20150;SDS011;10236;49.638;6.830;2022-08-30T07:33:53;4.55;;;2.60;;
20150;SDS011;10236;49.638;6.830;2022-08-30T07:36:20;3.40;;;2.40;;
20150;SDS011;10236;49.638;6.830;2022-08-30T07:38:47;3.97;;;2.10;;
20150;SDS011;10236;49.638;6.830;2022-08-30T07:41:33;6.13;;;2.65;;
20150;SDS011;10236;49.638;6.830;2022-08-30T07:44:00;6.95;;;2.38;;
20150;SDS011;10236;49.638;6.830;2022-08-30T07:46:26;6.65;;;2.40;;
20150;SDS011;10236;49.638;6.830;2022-08-30T07:48:52;6.78;;;2.70;;
20150;SDS011;10236;49.638;6.830;2022-08-30T07:51:20;5.13;;;2.92;;
20150;SDS011;10236;49.638;6.830;2022-08-30T07:53:46;4.80;;;2.65;;
20150;SDS011;10236;49.638;6.830;2022-08-30T07:56:12;6.32;;;2.92;;
20150;SDS011;10236;49.638;6.830;2022-08-30T07:58:38;6.70;;;3.13;;
20150;SDS011;10236;49.638;6.830;2022-08-30T08:01:04;3.53;;;2.42;;
20150;SDS011;10236;49.638;6.830;2022-08-30T08:03:31;4.88;;;2.50;;
20150;SDS011;10236;49.638;6.830;2022-08-30T08:05:59;6.32;;;2.78;;
20150;SDS011;10236;49.638;6.830;2022-08-30T08:08:26;7.25;;;2.90;;
20150;SDS011;10236;49.638;6.830;2022-08-30T08:10:52;3.72;;;2.67;;
20150;SDS011;10236;49.638;6.830;2022-08-30T08:13:17;5.25;;;3.20;;
20150;SDS011;10236;49.638;6.830;2022-08-30T08:15:43;4.15;;;2.90;;
20150;SDS011;10236;49.638;6.830;2022-08-30T08:18:09;6.82;;;3.20;;
20150;SDS011;10236;49.638;6.830;2022-08-30T08:20:36;5.05;;;2.70;;
20150;SDS011;10236;49.638;6.830;2022-08-30T08:23:02;9.15;;;3.30;;
20150;SDS011;10236;49.638;6.830;2022-08-30T08:25:29;6.53;;;2.60;;
20150;SDS011;10236;49.638;6.830;2022-08-30T08:27:55;5.55;;;2.47;;
20150;SDS011;10236;49.638;6.830;2022-08-30T08:30:21;5.13;;;2.92;;
20150;SDS011;10236;49.638;6.830;2022-08-30T08:32:48;5.07;;;3.08;;
20150;SDS011;10236;49.638;6.830;2022-08-30T08:35:14;6.32;;;3.00;;
20150;SDS011;10236;49.638;6.830;2022-08-30T08:37:40;4.63;;;3.20;;
20150;SDS011;10236;49.638;6.830;2022-08-30T08:40:07;7.57;;;3.28;;
20150;SDS011;10236;49.638;6.830;2022-08-30T08:42:46;5.40;;;3.13;;
20150;SDS011;10236;49.638;6.830;2022-08-30T08:45:16;7.72;;;2.72;;
20150;SDS011;10236;49.638;6.830;2022-08-30T08:48:03;4.13;;;3.10;;
20150;SDS011;10236;49.638;6.830;2022-08-30T08:50:31;4.90;;;2.92;;
20150;SDS011;10236;49.638;6.830;2022-08-30T08:53:00;5.90;;;3.05;;
20150;SDS011;10236;49.638;6.830;2022-08-30T08:55:50;7.85;;;3.35;;
20150;SDS011;10236;49.638;6.830;2022-08-30T08:58:25;10.00;;;3.30;;
20150;SDS011;10236;49.638;6.830;2022-08-30T09:00:52;4.20;;;3.05;;
20150;SDS011;10236;49.638;6.830;2022-08-30T09:03:22;6.25;;;3.20;;
20150;SDS011;10236;49.638;6.830;2022-08-30T09:05:48;6.45;;;3.17;;
20150;SDS011;10236;49.638;6.830;2022-08-30T09:08:15;6.18;;;3.70;;
20150;SDS011;10236;49.638;6.830;2022-08-30T09:10:45;5.20;;;3.05;;
20150;SDS011;10236;49.638;6.830;2022-08-30T09:13:13;7.88;;;3.50;;
20150;SDS011;10236;49.638;6.830;2022-08-30T09:15:39;5.95;;;3.35;;
20150;SDS011;10236;49.638;6.830;2022-08-30T09:18:05;7.00;;;3.20;;
20150;SDS011;10236;49.638;6.830;2022-08-30T09:20:34;4.05;;;3.20;;
20150;SDS011;10236;49.638;6.830;2022-08-30T09:23:19;4.97;;;3.00;;
20150;SDS011;10236;49.638;6.830;2022-08-30T09:25:53;4.47;;;3.22;;
20150;SDS011;10236;49.638;6.830;2022-08-30T09:28:20;7.22;;;3.00;;
20150;SDS011;10236;49.638;6.830;2022-08-30T09:31:07;5.65;;;3.25;;
20150;SDS011;10236;49.638;6.830;2022-08-30T09:33:52;3.65;;;2.88;;
20150;SDS011;10236;49.638;6.830;2022-08-30T09:36:21;6.47;;;3.58;;
20150;SDS011;10236;49.638;6.830;2022-08-30T09:38:55;6.32;;;3.35;;
20150;SDS011;10236;49.638;6.830;2022-08-30T09:42:09;5.65;;;3.38;;
20150;SDS011;10236;49.638;6.830;2022-08-30T09:44:17;9.13;;;3.58;;
20150;SDS011;10236;49.638;6.830;2022-08-30T09:46:51;7.78;;;3.33;;
20150;SDS011;10236;49.638;6.830;2022-08-30T09:49:39;13.38;;;3.70;;
20150;SDS011;10236;49.638;6.830;2022-08-30T09:52:10;5.38;;;3.08;;
20150;SDS011;10236;49.638;6.830;2022-08-30T09:57:19;8.95;;;3.38;;
20150;SDS011;10236;49.638;6.830;2022-08-30T10:00:04;8.93;;;3.63;;
20150;SDS011;10236;49.638;6.830;2022-08-30T10:02:43;5.68;;;3.45;;
20150;SDS011;10236;49.638;6.830;2022-08-30T10:15:34;4.25;;;3.65;;
20150;SDS011;10236;49.638;6.830;2022-08-30T10:20:30;5.05;;;3.20;;
20150;SDS011;10236;49.638;6.830;2022-08-30T10:28:16;3.70;;;3.05;;
20150;SDS011;10236;49.638;6.830;2022-08-30T10:30:44;4.00;;;2.60;;
20150;SDS011;10236;49.638;6.830;2022-08-30T10:33:29;5.70;;;3.20;;
20150;SDS011;10236;49.638;6.830;2022-08-30T10:35:57;6.18;;;2.97;;
20150;SDS011;10236;49.638;6.830;2022-08-30T10:38:28;4.82;;;3.10;;
20150;SDS011;10236;49.638;6.830;2022-08-30T10:40:57;4.53;;;2.95;;
20150;SDS011;10236;49.638;6.830;2022-08-30T10:48:54;7.97;;;3.13;;
20150;SDS011;10236;49.638;6.830;2022-08-30T10:51:25;3.60;;;2.90;;
20150;SDS011;10236;49.638;6.830;2022-08-30T10:53:54;6.68;;;2.72;;
20150;SDS011;10236;49.638;6.830;2022-08-30T10:56:22;2.78;;;2.50;;
20150;SDS011;10236;49.638;6.830;2022-08-30T10:58:50;9.05;;;2.72;;
20150;SDS011;10236;49.638;6.830;2022-08-30T11:01:25;5.55;;;2.47;;
20150;SDS011;10236;49.638;6.830;2022-08-30T11:11:34;3.70;;;2.83;;
20150;SDS011;10236;49.638;6.830;2022-08-30T11:14:04;4.40;;;3.28;;
20150;SDS011;10236;49.638;6.830;2022-08-30T11:16:35;6.13;;;2.80;;
20150;SDS011;10236;49.638;6.830;2022-08-30T11:19:02;4.05;;;3.00;;
20150;SDS011;10236;49.638;6.830;2022-08-30T11:24:08;3.03;;;2.75;;
20150;SDS011;10236;49.638;6.830;2022-08-30T11:31:55;3.83;;;2.88;;
20150;SDS011;10236;49.638;6.830;2022-08-30T11:37:06;5.72;;;2.85;;
20150;SDS011;10236;49.638;6.830;2022-08-30T11:44:47;5.90;;;2.90;;
20150;SDS011;10236;49.638;6.830;2022-08-30T11:50:03;4.53;;;2.40;;
20150;SDS011;10236;49.638;6.830;2022-08-30T11:55:01;2.85;;;2.55;;
20150;SDS011;10236;49.638;6.830;2022-08-30T11:57:30;2.92;;;2.63;;
20150;SDS011;10236;49.638;6.830;2022-08-30T12:00:10;4.72;;;2.60;;
20150;SDS011;10236;49.638;6.830;2022-08-30T12:02:52;2.92;;;2.67;;
20150;SDS011;10236;49.638;6.830;2022-08-30T12:05:54;3.17;;;2.35;;
20150;SDS011;10236;49.638;6.830;2022-08-30T12:18:44;3.60;;;3.30;;
20150;SDS011;10236;49.638;6.830;2022-08-30T12:26:35;5.05;;;2.80;;
20150;SDS011;10236;49.638;6.830;2022-08-30T12:29:15;4.82;;;2.53;;
20150;SDS011;10236;49.638;6.830;2022-08-30T12:31:43;3.10;;;2.80;;
20150;SDS011;10236;49.638;6.830;2022-08-30T12:36:47;4.18;;;2.58;;
20150;SDS011;10236;49.638;6.830;2022-08-30T12:39:18;3.28;;;2.90;;
20150;SDS011;10236;49.638;6.830;2022-08-30T12:41:45;3.25;;;2.78;;
20150;SDS011;10236;49.638;6.830;2022-08-30T12:44:24;4.22;;;2.63;;
20150;SDS011;10236;49.638;6.830;2022-08-30T12:46:52;3.13;;;2.80;;
20150;SDS011;10236;49.638;6.830;2022-08-30T12:49:20;4.15;;;2.67;;
20150;SDS011;10236;49.638;6.830;2022-08-30T12:51:48;3.40;;;2.95;;
20150;SDS011;10236;49.638;6.830;2022-08-30T12:54:22;5.03;;;2.85;;
20150;SDS011;10236;49.638;6.830;2022-08-30T12:56:50;3.67;;;3.03;;
20150;SDS011;10236;49.638;6.830;2022-08-30T13:02:06;7.88;;;3.20;;
20150;SDS011;10236;49.638;6.830;2022-08-30T13:04:34;4.50;;;3.00;;
20150;SDS011;10236;49.638;6.830;2022-08-30T13:07:01;2.90;;;2.70;;
20150;SDS011;10236;49.638;6.830;2022-08-30T13:09:30;8.82;;;3.17;;
20150;SDS011;10236;49.638;6.830;2022-08-30T13:12:01;3.38;;;2.60;;
20150;SDS011;10236;49.638;6.830;2022-08-30T13:19:39;5.13;;;2.97;;
20150;SDS011;10236;49.638;6.830;2022-08-30T13:22:06;3.38;;;2.90;;
20150;SDS011;10236;49.638;6.830;2022-08-30T13:24:49;4.68;;;2.75;;
20150;SDS011;10236;49.638;6.830;2022-08-30T13:27:15;5.05;;;3.35;;
20150;SDS011;10236;49.638;6.830;2022-08-30T13:29:49;5.20;;;3.17;;
20150;SDS011;10236;49.638;6.830;2022-08-30T13:32:15;6.30;;;3.30;;
20150;SDS011;10236;49.638;6.830;2022-08-30T13:34:41;4.75;;;3.28;;
20150;SDS011;10236;49.638;6.830;2022-08-30T13:37:09;3.63;;;2.78;;
20150;SDS011;10236;49.638;6.830;2022-08-30T13:39:38;4.28;;;3.50;;
20150;SDS011;10236;49.638;6.830;2022-08-30T13:42:05;5.05;;;2.97;;
20150;SDS011;10236;49.638;6.830;2022-08-30T13:44:31;6.72;;;3.05;;
20150;SDS011;10236;49.638;6.830;2022-08-30T13:46:57;4.53;;;3.15;;
20150;SDS011;10236;49.638;6.830;2022-08-30T13:49:26;3.22;;;2.92;;
20150;SDS011;10236;49.638;6.830;2022-08-30T13:51:54;4.63;;;3.28;;
20150;SDS011;10236;49.638;6.830;2022-08-30T13:54:21;7.90;;;3.00;;
20150;SDS011;10236;49.638;6.830;2022-08-30T13:56:48;6.28;;;3.00;;
20150;SDS011;10236;49.638;6.830;2022-08-30T13:59:14;4.72;;;3.35;;
20150;SDS011;10236;49.638;6.830;2022-08-30T14:01:40;4.80;;;2.67;;
20150;SDS011;10236;49.638;6.830;2022-08-30T14:04:07;3.25;;;2.85;;
20150;SDS011;10236;49.638;6.830;2022-08-30T14:06:38;7.78;;;2.90;;
20150;SDS011;10236;49.638;6.830;2022-08-30T14:09:07;5.18;;;2.42;;
20150;SDS011;10236;49.638;6.830;2022-08-30T14:11:40;6.03;;;3.17;;
20150;SDS011;10236;49.638;6.830;2022-08-30T14:14:06;5.53;;;2.97;;
20150;SDS011;10236;49.638;6.830;2022-08-30T14:16:40;4.95;;;3.28;;
20150;SDS011;10236;49.638;6.830;2022-08-30T14:19:07;5.43;;;2.83;;
20150;SDS011;10236;49.638;6.830;2022-08-30T14:21:33;4.57;;;3.15;;
20150;SDS011;10236;49.638;6.830;2022-08-30T14:23:59;7.90;;;3.13;;
20150;SDS011;10236;49.638;6.830;2022-08-30T14:26:26;4.03;;;2.78;;
20150;SDS011;10236;49.638;6.830;2022-08-30T14:28:53;3.95;;;2.75;;
20150;SDS011;10236;49.638;6.830;2022-08-30T14:31:19;4.13;;;2.75;;
20150;SDS011;10236;49.638;6.830;2022-08-30T14:33:45;3.80;;;2.70;;
20150;SDS011;10236;49.638;6.830;2022-08-30T14:36:11;3.20;;;2.60;;
20150;SDS011;10236;49.638;6.830;2022-08-30T14:38:37;3.85;;;2.78;;
20150;SDS011;10236;49.638;6.830;2022-08-30T14:41:03;3.50;;;3.17;;
20150;SDS011;10236;49.638;6.830;2022-08-30T14:43:29;3.97;;;2.83;;
20150;SDS011;10236;49.638;6.830;2022-08-30T14:45:59;4.50;;;2.92;;
20150;SDS011;10236;49.638;6.830;2022-08-30T14:48:25;7.57;;;2.60;;
20150;SDS011;10236;49.638;6.830;2022-08-30T14:50:51;3.05;;;2.50;;
20150;SDS011;10236;49.638;6.830;2022-08-30T14:53:17;4.00;;;2.70;;
20150;SDS011;10236;49.638;6.830;2022-08-30T14:55:43;3.75;;;2.53;;
20150;SDS011;10236;49.638;6.830;2022-08-30T14:58:09;3.25;;;2.70;;
20150;SDS011;10236;49.638;6.830;2022-08-30T15:00:36;5.13;;;2.88;;
20150;SDS011;10236;49.638;6.830;2022-08-30T15:03:02;5.90;;;2.80;;
20150;SDS011;10236;49.638;6.830;2022-08-30T15:05:28;5.40;;;2.72;;
20150;SDS011;10236;49.638;6.830;2022-08-30T15:07:55;3.67;;;2.88;;
20150;SDS011;10236;49.638;6.830;2022-08-30T15:10:21;5.43;;;3.05;;
20150;SDS011;10236;49.638;6.830;2022-08-30T15:12:48;4.70;;;2.80;;
20150;SDS011;10236;49.638;6.830;2022-08-30T15:15:15;5.45;;;3.20;;
20150;SDS011;10236;49.638;6.830;2022-08-30T15:17:43;3.42;;;2.67;;
20150;SDS011;10236;49.638;6.830;2022-08-30T15:20:09;4.78;;;2.90;;
20150;SDS011;10236;49.638;6.830;2022-08-30T15:22:36;5.35;;;2.85;;
20150;SDS011;10236;49.638;6.830;2022-08-30T15:25:02;3.97;;;3.00;;
20150;SDS011;10236;49.638;6.830;2022-08-30T15:27:28;3.65;;;2.67;;
20150;SDS011;10236;49.638;6.830;2022-08-30T15:29:54;4.70;;;2.60;;
20150;SDS011;10236;49.638;6.830;2022-08-30T15:32:20;3.72;;;2.90;;
20150;SDS011;10236;49.638;6.830;2022-08-30T15:34:46;3.08;;;2.38;;
20150;SDS011;10236;49.638;6.830;2022-08-30T15:37:12;4.05;;;2.25;;
20150;SDS011;10236;49.638;6.830;2022-08-30T15:39:46;4.72;;;2.70;;
20150;SDS011;10236;49.638;6.830;2022-08-30T15:42:12;3.90;;;2.55;;
20150;SDS011;10236;49.638;6.830;2022-08-30T15:44:38;5.07;;;2.83;;
20150;SDS011;10236;49.638;6.830;2022-08-30T15:47:03;7.20;;;2.85;;
20150;SDS011;10236;49.638;6.830;2022-08-30T15:49:30;6.65;;;2.88;;
20150;SDS011;10236;49.638;6.830;2022-08-30T15:51:58;5.38;;;2.55;;
20150;SDS011;10236;49.638;6.830;2022-08-30T15:54:24;4.93;;;2.83;;
20150;SDS011;10236;49.638;6.830;2022-08-30T15:56:50;7.28;;;3.00;;
20150;SDS011;10236;49.638;6.830;2022-08-30T15:59:22;4.05;;;2.90;;
20150;SDS011;10236;49.638;6.830;2022-08-30T16:01:48;4.93;;;3.17;;
20150;SDS011;10236;49.638;6.830;2022-08-30T16:04:14;5.25;;;3.22;;
20150;SDS011;10236;49.638;6.830;2022-08-30T16:06:41;4.32;;;2.95;;
20150;SDS011;10236;49.638;6.830;2022-08-30T16:09:07;4.38;;;2.50;;
20150;SDS011;10236;49.638;6.830;2022-08-30T16:11:34;4.47;;;2.28;;
20150;SDS011;10236;49.638;6.830;2022-08-30T16:14:00;5.50;;;2.85;;
20150;SDS011;10236;49.638;6.830;2022-08-30T16:16:26;5.70;;;2.85;;
20150;SDS011;10236;49.638;6.830;2022-08-30T16:18:54;3.40;;;2.30;;
20150;SDS011;10236;49.638;6.830;2022-08-30T16:21:22;6.45;;;2.90;;
20150;SDS011;10236;49.638;6.830;2022-08-30T16:23:48;4.57;;;2.45;;
20150;SDS011;10236;49.638;6.830;2022-08-30T16:26:14;4.18;;;2.47;;
20150;SDS011;10236;49.638;6.830;2022-08-30T16:28:44;5.15;;;2.63;;
20150;SDS011;10236;49.638;6.830;2022-08-30T16:31:11;6.63;;;2.80;;
20150;SDS011;10236;49.638;6.830;2022-08-30T16:33:42;6.75;;;2.75;;
20150;SDS011;10236;49.638;6.830;2022-08-30T16:36:20;6.75;;;2.33;;
20150;SDS011;10236;49.638;6.830;2022-08-30T16:38:49;3.53;;;3.00;;
20150;SDS011;10236;49.638;6.830;2022-08-30T16:41:15;5.85;;;2.75;;
20150;SDS011;10236;49.638;6.830;2022-08-30T16:43:41;4.53;;;3.05;;
20150;SDS011;10236;49.638;6.830;2022-08-30T16:46:09;7.00;;;3.30;;